LGRP/RHO METAR and TAF weather

Enter ICAO airport designator
Station Type Date Time Source
LGRP METAR 2020/07/08 00:20 UTC NOAA

LGRP 080020Z 24007KT CAVOK 25/23 Q1004 NOSIG


Station Type Date Time Source
LGRP Decoded METAR 2020/07/08 00:20 UTC NOAA

Rhodes Airport , Greece (LGRP) 36-24N 028-05E 11M
Jul 07, 2020 - 08:20 PM EDT / 2020.07.08 0020 UTC
Wind: from the WSW (240 degrees) at 8 MPH (7 KT):0
Visibility: greater than 7 mile(s):0
Temperature: 77 F (25 C)
Dew Point: 73 F (23 C)
Relative Humidity: 88%
Pressure (altimeter): 29.65 in. Hg (1004 hPa)
ob: LGRP 080020Z 24007KT CAVOK 25/23 Q1004 NOSIG
cycle: 0

Station Type Date Time Source
LGRP TAF 2020/07/07 18:16 UTC NOAA

TAF LGRP 071700Z 0718/0818 26012KT 9999 FEW018 SCT030 PROB40
TEMPO 0718/0803 5000 TSRA FEW018CB BKN020

Example: see airport list